Time;durP1;ratioP1;P1;durP2;ratioP2;P2;SDS_P1;SDS_P2;PMS_P1;PMS_P2;Temp;Humidity;BMP_temperature;BMP_pressure;BME280_temperature;BME280_humidity;BME280_pressure;Samples;Min_cycle;Max_cycle;Signal;HPM_P1;HPM_P2
2022/04/29 00:01:05;;;;;;;1.17;1.07;;;;;;;18.33;51.63;100666.75;1840267;77;21000;-65
2022/04/29 00:03:32;;;;;;;1.70;1.60;;;;;;;18.33;51.62;100672.62;1833842;77;21572;-64
2022/04/29 00:06:00;;;;;;;1.77;1.45;;;;;;;18.33;51.63;100665.90;1830810;77;21000;-65
2022/04/29 00:08:29;;;;;;;1.75;1.62;;;;;;;18.31;51.62;100660.73;1835281;77;21045;-65
2022/04/29 00:10:57;;;;;;;1.80;1.70;;;;;;;18.30;51.61;100658.23;1836406;77;21597;-66
2022/04/29 00:13:25;;;;;;;1.77;1.67;;;;;;;18.29;51.64;100662.77;1843810;77;21033;-66
2022/04/29 00:15:53;;;;;;;1.62;1.52;;;;;;;18.28;51.63;100658.43;1842887;77;21127;-66
2022/04/29 00:18:21;;;;;;;1.90;1.60;;;;;;;18.26;51.62;100658.63;1835027;77;21028;-65
2022/04/29 00:20:49;;;;;;;2.15;1.57;;;;;;;18.26;51.62;100664.00;1835761;76;21505;-63
2022/04/29 00:23:17;;;;;;;1.40;1.30;;;;;;;18.25;51.64;100662.35;1842687;76;21517;-65
2022/04/29 00:25:45;;;;;;;1.57;1.47;;;;;;;18.24;51.62;100667.92;1852476;76;21036;-64
2022/04/29 00:28:13;;;;;;;1.57;1.47;;;;;;;18.22;51.61;100664.08;1834798;77;21685;-65
2022/04/29 00:30:41;;;;;;;1.85;1.70;;;;;;;18.22;51.63;100664.08;1833807;77;21076;-65
2022/04/29 00:33:07;;;;;;;2.08;1.50;;;;;;;18.21;51.62;100662.92;1838249;77;21646;-66
2022/04/29 00:35:34;;;;;;;3.10;1.60;;;;;;;18.21;51.64;100662.92;1839987;77;21199;-64
2022/04/29 00:38:01;;;;;;;1.75;1.60;;;;;;;18.19;51.64;100660.42;1835968;77;20993;-65
2022/04/29 00:40:30;;;;;;;1.90;1.70;;;;;;;18.19;51.63;100661.77;1841092;77;21013;-66
2022/04/29 00:42:58;;;;;;;1.80;1.70;;;;;;;18.17;51.62;100654.41;1840274;77;21081;-65
2022/04/29 00:45:25;;;;;;;1.70;1.60;;;;;;;18.16;51.61;100653.28;1830160;77;21493;-65
2022/04/29 00:47:52;;;;;;;2.47;1.92;;;;;;;18.15;51.61;100655.13;1828082;77;21257;-65
2022/04/29 00:50:23;;;;;;;1.60;1.50;;;;;;;18.14;51.61;100648.59;1824405;77;21690;-65
2022/04/29 00:52:51;;;;;;;2.40;1.55;;;;;;;18.14;51.65;100645.90;1847925;77;22063;-64
2022/04/29 00:55:21;;;;;;;1.60;1.50;;;;;;;18.11;51.64;100645.78;1847199;77;21481;-65
2022/04/29 00:58:13;;;;;;;1.80;1.70;;;;;;;18.11;51.62;100646.31;1830404;77;21292;-65
2022/04/29 01:00:40;;;;;;;1.75;1.62;;;;;;;18.09;51.63;100641.13;1850662;76;21702;-65
2022/04/29 01:03:08;;;;;;;1.40;1.30;;;;;;;18.07;51.65;100639.96;1828745;76;21011;-65
2022/04/29 01:05:37;;;;;;;1.90;1.70;;;;;;;18.05;51.64;100629.09;1816929;77;21005;-65
2022/04/29 01:08:06;;;;;;;1.60;1.50;;;;;;;18.05;51.65;100634.47;1828810;76;21108;-65
2022/04/29 01:10:34;;;;;;;1.50;1.40;;;;;;;18.03;51.66;100640.56;1846125;76;21021;-64
2022/04/29 01:13:03;;;;;;;2.25;1.80;;;;;;;18.03;51.66;100643.25;1841721;76;21279;-65
2022/04/29 01:15:31;;;;;;;1.70;1.60;;;;;;;18.01;51.69;100642.61;1843961;76;21037;-65
2022/04/29 01:18:09;;;;;;;1.65;1.55;;;;;;;18.00;51.70;100640.94;1832782;76;20993;-65
2022/04/29 01:20:35;;;;;;;1.32;1.22;;;;;;;17.98;51.71;100635.78;1815689;78;21628;-63
2022/04/29 01:23:10;;;;;;;1.95;1.75;;;;;;;17.97;51.72;100635.45;1823825;78;21030;-64
2022/04/29 01:25:39;;;;;;;1.65;1.55;;;;;;;17.96;51.73;100645.05;1816685;78;21544;-64
2022/04/29 01:28:06;;;;;;;1.80;1.70;;;;;;;17.95;51.74;100638.84;1818570;77;21085;-64
2022/04/29 01:30:36;;;;;;;1.67;1.57;;;;;;;17.94;51.74;100638.52;1796113;78;21162;-65
2022/04/29 01:33:02;;;;;;;1.67;1.50;;;;;;;17.93;51.73;100646.28;1803726;78;21616;-65
2022/04/29 01:35:31;;;;;;;1.40;1.30;;;;;;;17.92;51.73;100644.59;1833688;77;21472;-66
2022/04/29 01:37:59;;;;;;;2.00;1.80;;;;;;;17.91;51.73;100641.61;1838869;76;21135;-63
2022/04/29 01:40:27;;;;;;;1.92;1.82;;;;;;;17.90;51.76;100639.93;1840231;77;21036;-65
2022/04/29 01:42:54;;;;;;;1.60;1.50;;;;;;;17.89;51.74;100647.70;1846958;76;21016;-65
2022/04/29 01:45:22;;;;;;;2.00;1.80;;;;;;;17.87;51.75;100646.54;1840932;76;21507;-65
2022/04/29 01:47:59;;;;;;;1.70;1.60;;;;;;;17.86;51.76;100648.89;1806668;78;21029;-64
2022/04/29 01:50:32;;;;;;;2.35;2.17;;;;;;;17.86;51.74;100652.10;1849219;76;20970;-66
2022/04/29 01:52:58;;;;;;;1.70;1.60;;;;;;;17.84;51.73;100651.47;1830074;77;21553;-65
2022/04/29 01:55:25;;;;;;;2.30;1.80;;;;;;;17.83;51.78;100660.02;1830575;78;20990;-65
2022/04/29 01:57:53;;;;;;;2.72;1.90;;;;;;;17.82;51.79;100657.00;1829278;77;21544;-65
2022/04/29 02:00:20;;;;;;;1.92;1.80;;;;;;;17.81;51.79;100659.88;1829465;77;21032;-65
2022/04/29 02:02:47;;;;;;;2.10;1.90;;;;;;;17.79;51.81;100658.75;1827695;77;21725;-65
2022/04/29 02:05:18;;;;;;;2.10;1.90;;;;;;;17.78;51.81;100659.75;1828681;77;21450;-64
2022/04/29 02:07:46;;;;;;;2.20;1.57;;;;;;;17.77;51.80;100651.39;1829127;77;21022;-65
2022/04/29 02:10:16;;;;;;;2.40;1.82;;;;;;;17.75;51.83;100644.03;1831509;78;20989;-65
2022/04/29 02:12:46;;;;;;;1.70;1.60;;;;;;;17.74;51.85;100638.84;1829342;77;20977;-65
2022/04/29 02:15:32;;;;;;;1.52;1.42;;;;;;;17.74;51.84;100640.19;1828326;77;21136;-65
2022/04/29 02:18:00;;;;;;;2.10;1.90;;;;;;;17.73;51.86;100642.05;1832210;76;21260;-65
2022/04/29 02:20:27;;;;;;;2.12;1.92;;;;;;;17.71;51.87;100639.22;1838794;76;21016;-64
2022/04/29 02:22:57;;;;;;;1.92;1.72;;;;;;;17.71;51.86;100644.07;1833592;76;21064;-65
2022/04/29 02:25:24;;;;;;;2.22;1.80;;;;;;;17.69;51.88;100648.32;1837875;77;21050;-64
2022/04/29 02:27:52;;;;;;;2.45;1.92;;;;;;;17.68;51.91;100648.51;1840590;77;20992;-65
2022/04/29 02:30:20;;;;;;;1.95;1.67;;;;;;;17.68;51.90;100652.53;1835873;77;21038;-65
2022/04/29 02:32:47;;;;;;;1.70;1.60;;;;;;;17.67;51.91;100654.89;1837090;77;20973;-65
2022/04/29 02:35:14;;;;;;;1.85;1.70;;;;;;;17.65;51.92;100656.45;1840175;77;21520;-64
2022/04/29 02:37:42;;;;;;;3.00;2.08;;;;;;;17.64;51.93;100658.80;1838830;77;21005;-65
2022/04/29 02:40:11;;;;;;;2.20;1.75;;;;;;;17.64;51.93;100664.70;1844798;77;21123;-65
2022/04/29 02:42:38;;;;;;;1.67;1.40;;;;;;;17.62;51.94;100664.06;1839761;77;21653;-65
2022/04/29 02:45:08;;;;;;;2.10;1.90;;;;;;;17.62;51.94;100662.72;1840994;77;21045;-64
2022/04/29 02:47:43;;;;;;;2.20;1.62;;;;;;;17.61;51.96;100671.27;1843213;77;21045;-64
2022/04/29 02:50:11;;;;;;;2.17;1.98;;;;;;;17.60;51.97;100675.52;1844130;77;20999;-64
2022/04/29 02:52:40;;;;;;;1.77;1.47;;;;;;;17.58;51.98;100674.87;1830859;77;21110;-65
2022/04/29 02:55:08;;;;;;;1.70;1.52;;;;;;;17.59;52.01;100672.48;1843123;77;21717;-65
2022/04/29 02:57:36;;;;;;;1.82;1.60;;;;;;;17.56;52.00;100673.72;1769163;77;21033;-64
2022/04/29 03:00:05;;;;;;;1.60;1.50;;;;;;;17.56;51.99;100680.92;1839135;77;21457;-64
2022/04/29 03:02:33;;;;;;;2.20;1.72;;;;;;;17.55;52.04;100679.27;1830998;77;21020;-65
2022/04/29 03:05:00;;;;;;;2.10;1.90;;;;;;;17.54;52.01;100676.25;1840040;77;21092;-64
2022/04/29 03:07:28;;;;;;;2.30;2.10;;;;;;;17.53;52.05;100675.95;1829947;77;21051;-65
2022/04/29 03:09:56;;;;;;;1.98;1.70;;;;;;;17.52;52.06;100676.47;1838470;77;21456;-66
2022/04/29 03:12:23;;;;;;;2.08;1.87;;;;;;;17.51;52.11;100678.00;1832470;77;20977;-66
2022/04/29 03:14:53;;;;;;;2.00;1.80;;;;;;;17.51;52.09;100678.81;1832214;77;20999;-64
2022/04/29 03:20:06;;;;;;;2.00;1.75;;;;;;;17.50;52.14;100686.57;1838478;77;21092;-66
2022/04/29 03:22:35;;;;;;;1.60;1.50;;;;;;;17.48;52.12;100689.44;1837802;77;21017;-64
2022/04/29 03:25:01;;;;;;;2.42;1.87;;;;;;;17.48;52.17;100689.44;1837339;77;20991;-64
2022/04/29 03:27:29;;;;;;;1.90;1.70;;;;;;;17.46;52.17;100694.17;1845200;77;20986;-64
2022/04/29 03:29:57;;;;;;;1.98;1.80;;;;;;;17.45;52.18;100697.87;1844868;77;21177;-64
2022/04/29 03:32:24;;;;;;;2.80;1.75;;;;;;;17.45;52.18;100695.70;1839009;77;21017;-64
2022/04/29 03:35:03;;;;;;;2.25;2.05;;;;;;;17.44;52.20;100696.71;1850068;77;20954;-64
2022/04/29 03:37:31;;;;;;;2.37;1.82;;;;;;;17.43;52.21;100697.23;1832143;76;21064;-65
2022/04/29 03:39:59;;;;;;;2.33;2.12;;;;;;;17.42;52.22;100702.30;1839804;76;21028;-65
2022/04/29 03:42:25;;;;;;;2.35;2.00;;;;;;;17.42;52.23;100704.13;1844071;76;21073;-65
2022/04/29 03:44:52;;;;;;;1.85;1.72;;;;;;;17.42;52.23;100704.98;1841729;76;21055;-64
2022/04/29 03:47:21;;;;;;;1.60;1.50;;;;;;;17.42;52.23;100704.98;1841219;76;20977;-65
2022/04/29 03:50:01;;;;;;;2.42;2.02;;;;;;;17.41;52.24;100701.96;1842938;77;21594;-64
2022/04/29 03:52:29;;;;;;;2.20;1.90;;;;;;;17.42;52.26;100709.50;1831563;77;21476;-64
2022/04/29 03:54:57;;;;;;;2.33;2.02;;;;;;;17.41;52.26;100709.20;1839233;77;21002;-66
2022/04/29 03:57:25;;;;;;;2.20;1.72;;;;;;;17.41;52.27;100715.91;1844536;77;20982;-65
2022/04/29 03:59:53;;;;;;;2.12;1.90;;;;;;;17.41;52.24;100714.05;1838841;77;22288;-65
2022/04/29 04:02:21;;;;;;;2.05;1.85;;;;;;;17.41;52.27;100716.73;1836315;77;21054;-65
2022/04/29 04:04:47;;;;;;;1.82;1.72;;;;;;;17.43;52.27;100724.09;1839379;77;21000;-63
2022/04/29 04:07:15;;;;;;;2.35;1.98;;;;;;;17.42;52.27;100717.07;1831043;76;21807;-64
2022/04/29 04:09:48;;;;;;;2.40;2.20;;;;;;;17.44;52.27;100722.23;1827103;78;21670;-65
2022/04/29 04:12:15;;;;;;;2.12;1.60;;;;;;;17.44;52.27;100721.73;1827512;77;21031;-65
2022/04/29 04:15:00;;;;;;;2.17;1.97;;;;;;;17.47;52.28;100724.03;1827827;78;20997;-65
2022/04/29 04:17:29;;;;;;;3.50;2.52;;;;;;;17.47;52.28;100724.03;1845105;76;21648;-64
2022/04/29 04:19:55;;;;;;;2.20;2.00;;;;;;;17.48;52.24;100723.51;1828748;76;21129;-64
2022/04/29 04:22:22;;;;;;;2.60;1.85;;;;;;;17.48;52.25;100714.96;1842345;76;21517;-64
2022/04/29 04:24:50;;;;;;;1.95;1.82;;;;;;;17.49;52.25;100717.95;1839874;76;21012;-66
2022/04/29 04:27:18;;;;;;;2.25;1.90;;;;;;;17.49;52.24;100724.67;1833868;76;21118;-66
2022/04/29 04:29:45;;;;;;;2.25;2.05;;;;;;;17.51;52.24;100722.31;1805968;77;22109;-64
2022/04/29 04:32:13;;;;;;;2.47;2.22;;;;;;;17.52;52.25;100723.48;1769953;78;21152;-66
2022/04/29 04:34:51;;;;;;;2.33;1.85;;;;;;;17.52;52.23;100723.97;1805554;77;21017;-64
2022/04/29 04:37:20;;;;;;;2.00;1.65;;;;;;;17.53;52.21;100718.41;1803974;77;20996;-65
2022/04/29 04:39:48;;;;;;;1.98;1.85;;;;;;;17.55;52.21;100725.77;1806092;77;21071;-65
2022/04/29 04:42:17;;;;;;;2.35;2.15;;;;;;;17.56;52.20;100722.56;1826297;77;20994;-65
2022/04/29 04:44:47;;;;;;;2.00;1.80;;;;;;;17.56;52.21;100721.22;1842472;76;21143;-65
2022/04/29 04:47:14;;;;;;;2.42;2.00;;;;;;;17.57;52.19;100718.34;1844609;77;21016;-64
2022/04/29 04:49:59;;;;;;;2.00;1.80;;;;;;;17.59;52.18;100719.51;1849666;76;20981;-65
2022/04/29 04:52:28;;;;;;;2.25;2.05;;;;;;;17.59;52.17;100718.98;1838880;76;21012;-64
2022/04/29 04:54:56;;;;;;;3.65;1.87;;;;;;;17.60;52.20;100727.38;1838767;76;21563;-65
2022/04/29 04:57:25;;;;;;;2.15;1.77;;;;;;;17.60;52.20;100720.66;1828855;76;21148;-64
2022/04/29 04:59:51;;;;;;;2.67;2.00;;;;;;;17.62;52.17;100720.48;1836868;76;21022;-65
2022/04/29 05:02:20;;;;;;;2.45;2.15;;;;;;;17.62;52.16;100726.68;1839266;77;21177;-65
2022/04/29 05:05:08;;;;;;;2.37;2.17;;;;;;;17.63;52.14;100724.30;1832226;77;21057;-66
2022/04/29 05:07:43;;;;;;;2.25;2.00;;;;;;;17.64;52.14;100729.19;1840059;77;20990;-64
2022/04/29 05:10:11;;;;;;;1.82;1.70;;;;;;;17.65;52.16;100726.80;1843073;77;21937;-65
2022/04/29 05:12:43;;;;;;;2.52;1.90;;;;;;;17.66;52.14;100727.14;1837574;77;21493;-66
2022/04/29 05:15:14;;;;;;;2.17;1.98;;;;;;;17.66;52.11;100728.48;1826763;76;21107;-64
2022/04/29 05:17:42;;;;;;;2.40;1.82;;;;;;;17.67;52.13;100731.47;1834282;76;21508;-64
2022/04/29 05:20:24;;;;;;;2.02;1.80;;;;;;;17.67;52.11;100724.75;1832592;77;21055;-65
2022/04/29 05:22:52;;;;;;;2.10;1.90;;;;;;;17.69;52.08;100727.59;1843601;76;21081;-65
2022/04/29 05:25:20;;;;;;;2.35;1.98;;;;;;;17.69;52.09;100723.56;1841356;76;21096;-64
2022/04/29 05:27:54;;;;;;;2.33;1.77;;;;;;;17.71;52.08;100731.92;1812799;76;21024;-65
2022/04/29 05:30:40;;;;;;;3.02;2.22;;;;;;;17.72;52.07;100731.74;1838685;76;21008;-65
2022/04/29 05:33:23;;;;;;;2.90;2.30;;;;;;;17.72;52.07;100733.09;1856780;76;21033;-65
2022/04/29 05:36:09;;;;;;;2.45;1.98;;;;;;;17.74;52.07;100734.24;1863936;76;21123;-64
2022/04/29 05:44:15;;;;;;;2.08;1.80;;;;;;;17.76;52.10;100727.64;1834405;76;21101;-64
2022/04/29 05:46:41;;;;;;;2.20;1.62;;;;;;;17.77;52.11;100732.02;1852840;76;21017;-65
2022/04/29 05:49:08;;;;;;;2.47;2.00;;;;;;;17.78;52.11;100728.28;1821476;76;21973;-66
2022/04/29 05:51:37;;;;;;;2.52;1.90;;;;;;;17.79;52.16;100729.96;1856817;76;21032;-64
2022/04/29 05:54:05;;;;;;;1.90;1.80;;;;;;;17.83;52.11;100732.59;1843716;76;21000;-66
2022/04/29 05:56:32;;;;;;;1.80;1.70;;;;;;;17.84;52.14;100734.27;1849473;76;21529;-64
2022/04/29 05:58:59;;;;;;;2.10;1.90;;;;;;;17.84;52.11;100737.47;1846480;76;20977;-64
2022/04/29 06:01:31;;;;;;;2.17;1.97;;;;;;;17.86;52.11;100740.28;1825071;76;21131;-65
2022/04/29 06:03:58;;;;;;;2.08;1.85;;;;;;;17.88;52.15;100737.41;1863308;76;21033;-63
2022/04/29 06:06:25;;;;;;;2.12;1.92;;;;;;;17.90;52.14;100738.05;1840632;76;21052;-65
2022/04/29 06:08:53;;;;;;;2.15;1.92;;;;;;;17.92;52.16;100738.69;1846313;76;21016;-64
2022/04/29 06:11:20;;;;;;;2.72;2.00;;;;;;;17.93;52.18;100743.05;1846481;76;21160;-63
2022/04/29 06:13:48;;;;;;;2.67;2.15;;;;;;;17.96;52.18;100744.52;1861808;76;21499;-65
2022/04/29 06:16:21;;;;;;;2.10;1.90;;;;;;;17.95;52.17;100749.06;1838751;77;20966;-64
2022/04/29 06:19:08;;;;;;;2.50;2.30;;;;;;;17.96;52.12;100750.71;1802490;78;21017;-67
2022/04/29 06:21:43;;;;;;;2.10;1.90;;;;;;;17.98;52.18;100747.84;1816832;78;21002;-64
2022/04/29 06:24:11;;;;;;;2.25;1.90;;;;;;;17.99;52.19;100750.86;1792358;78;20996;-64
2022/04/29 06:26:39;;;;;;;2.22;2.02;;;;;;;18.01;52.21;100752.84;1788741;79;20985;-65
2022/04/29 06:29:06;;;;;;;2.35;1.85;;;;;;;18.01;52.23;100755.02;1773740;79;21032;-65
2022/04/29 06:31:35;;;;;;;2.02;1.52;;;;;;;18.04;52.24;100754.64;1792182;79;20981;-64
2022/04/29 06:34:03;;;;;;;2.55;2.10;;;;;;;18.05;52.25;100750.91;1723531;78;20969;-65
2022/04/29 06:36:30;;;;;;;2.05;1.85;;;;;;;18.07;52.24;100748.03;1796421;78;21228;-65
2022/04/29 06:39:00;;;;;;;1.95;1.72;;;;;;;18.10;52.24;100760.25;1814806;78;21134;-64
2022/04/29 06:41:44;;;;;;;2.33;1.57;;;;;;;18.12;52.23;100757.71;1797029;78;21130;-65
2022/04/29 06:44:14;;;;;;;1.85;1.72;;;;;;;18.14;52.27;100762.37;1790657;79;21016;-63
2022/04/29 06:47:00;;;;;;;2.47;1.50;;;;;;;18.17;52.28;100758.46;1792045;79;21169;-65
2022/04/29 06:49:29;;;;;;;2.17;1.98;;;;;;;18.18;52.32;100762.31;1794546;79;21021;-64
2022/04/29 06:52:14;;;;;;;2.17;2.00;;;;;;;18.20;52.35;100762.13;1748833;80;22056;-66
2022/04/29 06:54:44;;;;;;;3.08;2.15;;;;;;;18.23;52.34;100760.38;1759256;78;21029;-65
2022/04/29 06:57:12;;;;;;;1.98;1.75;;;;;;;18.26;52.36;100754.62;1792485;78;21556;-63
2022/04/29 06:59:38;;;;;;;2.12;1.80;;;;;;;18.28;52.39;100751.22;1755111;81;21081;-64
2022/04/29 07:02:06;;;;;;;2.33;2.12;;;;;;;18.30;52.43;100752.37;1774853;80;21078;-64
2022/04/29 07:04:34;;;;;;;2.42;1.77;;;;;;;18.33;52.41;100754.66;1779521;80;21204;-65
2022/04/29 07:07:02;;;;;;;2.17;1.98;;;;;;;18.34;52.37;100753.13;1760185;80;21470;-65
2022/04/29 07:09:31;;;;;;;1.98;1.62;;;;;;;18.35;52.33;100746.73;1779668;80;21485;-65
2022/04/29 07:12:16;;;;;;;1.95;1.75;;;;;;;18.38;52.31;100754.40;1783410;80;21045;-66
2022/04/29 07:14:52;;;;;;;2.65;2.33;;;;;;;18.41;52.31;100750.51;1771836;79;21093;-65
2022/04/29 07:17:23;;;;;;;2.22;2.02;;;;;;;18.43;52.32;100752.48;1757609;79;21329;-64
2022/04/29 07:19:53;;;;;;;1.80;1.70;;;;;;;18.44;52.28;100752.79;1771372;79;21028;-65
2022/04/29 07:22:23;;;;;;;2.12;1.92;;;;;;;18.47;52.27;100760.48;1771386;79;21044;-65
2022/04/29 07:24:50;;;;;;;2.45;2.10;;;;;;;18.49;52.27;100754.91;1776143;79;21067;-65
2022/04/29 07:27:17;;;;;;;1.62;1.50;;;;;;;18.51;52.25;100749.64;1792142;79;21067;-65
2022/04/29 07:29:44;;;;;;;2.15;1.98;;;;;;;18.53;52.24;100755.66;1769808;80;21147;-64
2022/04/29 07:32:14;;;;;;;2.20;1.65;;;;;;;18.54;52.21;100747.89;1793064;79;21069;-64
2022/04/29 07:43:36;;;;;;;2.00;1.80;;;;;;;18.62;52.26;100745.08;1797109;78;22035;-65
2022/04/29 07:46:05;;;;;;;1.80;1.70;;;;;;;18.64;52.32;100747.05;1811783;78;21006;-66
2022/04/29 07:48:39;;;;;;;1.90;1.70;;;;;;;18.65;52.32;100745.19;1716753;78;21037;-63
2022/04/29 07:51:07;;;;;;;1.80;1.70;;;;;;;18.68;52.33;100747.50;1771829;79;21013;-65
2022/04/29 07:53:35;;;;;;;1.75;1.65;;;;;;;18.70;52.33;100740.55;1814090;78;21091;-66
2022/04/29 07:56:03;;;;;;;1.52;1.42;;;;;;;18.72;52.45;100742.03;1789504;78;21161;-64
2022/04/29 07:58:34;;;;;;;1.60;1.50;;;;;;;18.75;52.38;100734.06;1797279;78;21019;-66
2022/04/29 08:01:04;;;;;;;2.00;1.80;;;;;;;18.77;52.36;100729.31;1804416;78;21143;-64
2022/04/29 08:03:31;;;;;;;2.08;1.72;;;;;;;18.79;52.37;100731.30;1794950;78;21053;-64
2022/04/29 08:06:02;;;;;;;1.82;1.72;;;;;;;18.82;52.32;100728.25;1806650;78;21006;-65
2022/04/29 08:08:31;;;;;;;1.67;1.57;;;;;;;18.84;52.28;100726.19;1770666;79;20990;-65
2022/04/29 08:10:58;;;;;;;1.75;1.65;;;;;;;18.88;52.30;100726.62;1758294;79;21026;-65
2022/04/29 08:13:27;;;;;;;1.67;1.47;;;;;;;18.91;52.25;100722.17;1787551;80;21013;-66
2022/04/29 08:16:15;;;;;;;1.98;1.70;;;;;;;18.94;52.21;100725.30;1712060;83;20984;-66
2022/04/29 08:18:52;;;;;;;2.05;1.90;;;;;;;18.97;52.27;100722.22;1696359;83;21124;-65
2022/04/29 08:21:21;;;;;;;2.12;1.92;;;;;;;18.99;52.25;100716.13;1773176;78;21094;-64
2022/04/29 08:23:48;;;;;;;2.02;1.92;;;;;;;19.02;52.26;100710.31;1830926;76;21067;-67
2022/04/29 08:26:15;;;;;;;1.95;1.85;;;;;;;19.03;52.29;100714.69;1846287;76;20982;-65
2022/04/29 08:28:43;;;;;;;2.47;1.90;;;;;;;19.06;52.30;100712.09;1849663;76;20958;-65
2022/04/29 08:31:10;;;;;;;2.08;1.80;;;;;;;19.09;52.35;100708.20;1846162;76;21068;-66
2022/04/29 08:33:39;;;;;;;1.40;1.30;;;;;;;19.10;52.38;100712.53;1833974;76;21180;-66
2022/04/29 08:36:10;;;;;;;1.67;1.57;;;;;;;19.11;52.43;100711.52;1827884;76;21097;-64
2022/04/29 08:38:36;;;;;;;1.40;1.30;;;;;;;19.12;52.39;100709.13;1839798;76;21080;-65
2022/04/29 08:41:03;;;;;;;2.02;1.87;;;;;;;19.14;52.38;100712.45;1855877;77;21528;-66
2022/04/29 08:43:32;;;;;;;2.05;1.60;;;;;;;19.15;52.32;100712.25;1854144;77;21074;-64
2022/04/29 08:46:01;;;;;;;1.75;1.65;;;;;;;19.16;52.23;100709.03;1857805;77;21133;-65
2022/04/29 08:48:43;;;;;;;1.87;1.65;;;;;;;19.17;52.18;100699.41;1853690;77;21021;-64
2022/04/29 08:51:10;;;;;;;1.95;1.50;;;;;;;19.20;52.22;100702.20;1847210;77;21008;-65
2022/04/29 08:53:38;;;;;;;1.52;1.35;;;;;;;19.20;52.24;100698.16;1857504;77;21040;-66
2022/04/29 08:58:50;;;;;;;1.50;1.40;;;;;;;19.23;52.16;100697.25;1829631;78;21134;-64
2022/04/29 09:01:17;;;;;;;1.82;1.70;;;;;;;19.27;52.12;100705.77;1827554;77;21033;-64
2022/04/29 09:03:43;;;;;;;1.57;1.47;;;;;;;19.29;52.12;100704.22;1828574;77;20975;-64
2022/04/29 09:06:12;;;;;;;1.77;1.65;;;;;;;19.31;52.15;100699.46;1829277;77;21110;-65
2022/04/29 09:08:43;;;;;;;1.72;1.62;;;;;;;19.33;52.14;100695.52;1823247;77;21029;-66
2022/04/29 09:11:24;;;;;;;1.65;1.55;;;;;;;19.34;52.09;100703.94;1829193;77;21338;-65
2022/04/29 09:13:51;;;;;;;1.80;1.70;;;;;;;19.36;52.17;100704.56;1831580;77;21027;-65
2022/04/29 09:16:18;;;;;;;1.90;1.70;;;;;;;19.37;52.30;100704.03;1836507;76;21151;-66
2022/04/29 09:18:53;;;;;;;1.77;1.67;;;;;;;19.38;52.31;100703.84;1842181;76;21595;-65
2022/04/29 09:21:27;;;;;;;1.65;1.55;;;;;;;19.38;52.25;100707.88;1841959;76;21578;-65
2022/04/29 09:23:59;;;;;;;1.80;1.70;;;;;;;19.39;52.30;100702.82;1850016;77;21230;-65
2022/04/29 09:26:36;;;;;;;1.77;1.60;;;;;;;19.40;52.24;100698.25;1840424;76;21024;-65
2022/04/29 09:29:19;;;;;;;1.90;1.70;;;;;;;19.41;52.19;100698.05;1836642;76;21016;-63
2022/04/29 09:32:01;;;;;;;1.82;1.70;;;;;;;19.41;52.16;100699.90;1809281;78;22211;-65
2022/04/29 09:34:58;;;;;;;1.77;1.60;;;;;;;19.40;52.15;100693.69;1805171;78;21073;-66
2022/04/29 09:37:27;;;;;;;1.65;1.55;;;;;;;19.41;52.07;100697.20;1809276;78;21134;-64
2022/04/29 09:40:04;;;;;;;1.82;1.72;;;;;;;19.40;52.03;100695.03;1818367;78;21032;-65
2022/04/29 09:42:38;;;;;;;1.62;1.52;;;;;;;19.40;51.88;100696.91;1809177;78;21072;-65
2022/04/29 09:45:17;;;;;;;1.55;1.42;;;;;;;19.41;51.84;100693.16;1798411;78;21462;-66
2022/04/29 09:47:44;;;;;;;1.95;1.80;;;;;;;19.40;51.83;100692.34;1806894;78;21072;-65
2022/04/29 09:50:10;;;;;;;2.05;1.85;;;;;;;19.40;51.74;100695.03;1829030;78;21134;-67
2022/04/29 09:52:40;;;;;;;1.72;1.62;;;;;;;19.40;51.68;100685.60;1793653;79;21083;-65
2022/04/29 09:55:15;;;;;;;1.72;1.62;;;;;;;19.41;51.67;100685.94;1764114;80;21001;-65
2022/04/29 09:57:56;;;;;;;1.95;1.57;;;;;;;19.42;51.56;100686.23;1763648;80;20994;-66
2022/04/29 10:00:21;;;;;;;1.62;1.52;;;;;;;19.44;51.57;100689.55;1767187;80;21069;-65
2022/04/29 10:02:49;;;;;;;1.60;1.50;;;;;;;19.47;51.61;100688.83;1778654;80;21073;-65
2022/04/29 10:05:16;;;;;;;1.52;1.42;;;;;;;19.48;51.58;100680.55;1761806;79;21504;-65
2022/04/29 10:07:45;;;;;;;1.62;1.47;;;;;;;19.51;51.63;100683.34;1789835;79;21017;-65
2022/04/29 10:10:12;;;;;;;2.12;1.70;;;;;;;19.54;51.64;100678.91;1789149;79;21738;-65
2022/04/29 10:12:38;;;;;;;1.87;1.60;;;;;;;19.56;51.74;100683.56;1789348;79;21305;-65
2022/04/29 10:15:16;;;;;;;1.95;1.75;;;;;;;19.59;51.83;100683.17;1741432;80;21265;-64
2022/04/29 10:23:17;;;;;;;1.80;1.70;;;;;;;19.68;51.86;100677.87;1791496;79;21072;-64
2022/04/29 10:25:46;;;;;;;1.70;1.60;;;;;;;19.70;51.88;100676.33;1793115;80;20985;-66
2022/04/29 10:31:20;;;;;;;1.92;1.72;;;;;;;19.79;52.03;100671.09;1846135;76;22524;-66
2022/04/29 10:33:47;;;;;;;1.85;1.50;;;;;;;19.78;52.07;100672.11;1817475;79;20973;-65
2022/04/29 10:36:15;;;;;;;1.85;1.55;;;;;;;19.80;52.00;100664.16;1817245;79;21135;-65
2022/04/29 10:38:46;;;;;;;1.60;1.50;;;;;;;19.82;52.06;100662.08;1805297;79;21049;-65
2022/04/29 10:41:20;;;;;;;1.80;1.70;;;;;;;19.83;52.07;100660.20;1785122;80;20937;-65
2022/04/29 10:43:56;;;;;;;1.60;1.50;;;;;;;19.84;52.01;100664.57;1785142;80;21065;-65
2022/04/29 10:46:38;;;;;;;1.90;1.70;;;;;;;19.84;51.94;100658.66;1785179;80;20946;-65
2022/04/29 10:49:30;;;;;;;1.90;1.62;;;;;;;19.85;51.91;100660.82;1785169;80;21135;-65
2022/04/29 10:52:27;;;;;;;1.62;1.52;;;;;;;19.85;51.88;100655.43;1784462;80;21576;-65
2022/04/29 10:55:01;;;;;;;1.77;1.65;;;;;;;19.86;51.78;100648.16;1786233;79;20987;-65
2022/04/29 10:57:43;;;;;;;1.67;1.57;;;;;;;19.86;51.74;100646.32;1755647;80;21077;-66
2022/04/29 11:00:13;;;;;;;2.08;1.37;;;;;;;19.87;51.97;100653.36;1784879;80;21518;-65
2022/04/29 11:02:40;;;;;;;1.87;1.72;;;;;;;19.89;51.97;100651.81;1785115;80;21132;-64
2022/04/29 11:05:08;;;;;;;2.00;1.85;;;;;;;19.91;51.96;100655.13;1784997;80;21014;-64
2022/04/29 11:07:44;;;;;;;1.80;1.40;;;;;;;19.94;51.93;100654.72;1785169;80;21064;-65
2022/04/29 11:10:21;;;;;;;1.60;1.50;;;;;;;19.95;51.89;100645.58;1785367;80;21033;-65
2022/04/29 11:12:59;;;;;;;1.67;1.57;;;;;;;19.99;51.84;100641.42;1788080;78;21435;-65
2022/04/29 11:15:46;;;;;;;1.65;1.55;;;;;;;20.01;51.65;100638.00;1817542;79;21232;-66
2022/04/29 11:18:23;;;;;;;1.60;1.50;;;;;;;20.01;51.66;100638.84;1760613;79;21578;-65
2022/04/29 11:20:59;;;;;;;1.55;1.45;;;;;;;20.03;51.75;100639.47;1817300;79;21009;-66
2022/04/29 11:26:15;;;;;;;1.50;1.40;;;;;;;20.06;51.80;100636.05;1817574;79;20145;-65
2022/04/29 11:28:43;;;;;;;1.50;1.35;;;;;;;20.06;51.78;100635.52;1816916;79;21474;-64
2022/04/29 11:31:14;;;;;;;2.30;1.40;;;;;;;20.07;51.79;100633.64;1812132;79;21108;-66
2022/04/29 11:33:41;;;;;;;1.50;1.40;;;;;;;20.08;51.64;100634.78;1817206;79;20978;-66
2022/04/29 11:36:11;;;;;;;1.70;1.50;;;;;;;20.10;51.64;100630.01;1817320;79;21014;-65
2022/04/29 11:38:46;;;;;;;1.57;1.47;;;;;;;20.13;51.70;100623.39;1817329;79;21025;-66
2022/04/29 11:41:24;;;;;;;2.00;1.80;;;;;;;20.15;51.73;100626.70;1816959;79;21166;-65
2022/04/29 11:43:51;;;;;;;2.00;1.80;;;;;;;20.18;51.61;100623.04;1816933;79;21013;-65
2022/04/29 11:46:19;;;;;;;1.50;1.40;;;;;;;20.25;51.45;100623.58;1810198;79;21030;-65
2022/04/29 11:48:59;;;;;;;1.60;1.50;;;;;;;20.29;51.27;100610.79;1784484;80;21139;-64
2022/04/29 11:51:28;;;;;;;1.52;1.42;;;;;;;20.35;51.19;100606.42;1784571;80;21076;-66
2022/04/29 11:54:00;;;;;;;1.52;1.37;;;;;;;20.41;51.13;100593.42;1784588;79;21207;-65
2022/04/29 11:56:39;;;;;;;1.60;1.50;;;;;;;20.52;51.00;100600.05;1784476;80;21080;-66
2022/04/29 11:59:09;;;;;;;2.08;1.87;;;;;;;20.72;50.74;100595.41;1784933;79;21026;-65
2022/04/29 12:01:36;;;;;;;1.35;1.25;;;;;;;20.88;50.48;100587.87;1784477;80;21001;-65
2022/04/29 12:04:03;;;;;;;1.50;1.40;;;;;;;20.95;50.37;100587.33;1785681;79;21540;-66
2022/04/29 12:06:30;;;;;;;1.70;1.60;;;;;;;21.01;50.45;100588.66;1784480;80;21521;-65
2022/04/29 12:08:57;;;;;;;1.60;1.50;;;;;;;21.07;50.38;100585.58;1784430;80;21022;-65
2022/04/29 12:11:29;;;;;;;1.47;1.37;;;;;;;21.09;50.41;100586.72;1784922;80;20995;-65